createdAt,value
2019-03-04T00:01:17.017Z,11.60
2019-03-04T00:03:51.221Z,11.60
2019-03-04T00:06:21.801Z,11.60
2019-03-04T00:08:53.988Z,11.60
2019-03-04T00:11:24.793Z,11.70
2019-03-04T00:13:55.914Z,11.70
2019-03-04T00:16:26.277Z,11.70
2019-03-04T00:19:02.571Z,11.70
2019-03-04T00:21:33.653Z,11.60
2019-03-04T00:24:05.531Z,11.60
2019-03-04T00:26:35.940Z,11.70
2019-03-04T00:29:06.084Z,11.80
2019-03-04T00:31:36.859Z,11.80
2019-03-04T00:34:09.462Z,11.80
2019-03-04T00:36:39.953Z,11.80
2019-03-04T00:39:12.181Z,11.80
2019-03-04T00:41:42.484Z,11.80
2019-03-04T00:44:12.897Z,11.70
2019-03-04T00:46:43.418Z,11.70
2019-03-04T00:49:13.640Z,11.60
2019-03-04T00:51:44.122Z,11.60
2019-03-04T00:54:14.694Z,11.60
2019-03-04T00:56:45.013Z,11.60
2019-03-04T00:59:15.090Z,11.60
2019-03-04T01:01:45.797Z,11.60
2019-03-04T01:04:15.925Z,11.60
2019-03-04T01:06:46.944Z,11.60
2019-03-04T01:09:18.006Z,11.70
2019-03-04T01:11:48.298Z,11.70
2019-03-04T01:14:18.749Z,11.70
2019-03-04T01:16:49.089Z,11.70
2019-03-04T01:19:19.924Z,11.80
2019-03-04T01:21:51.073Z,11.80
2019-03-04T01:24:21.289Z,11.80
2019-03-04T01:26:51.329Z,11.80
2019-03-04T01:29:21.736Z,11.80
2019-03-04T01:31:54.850Z,11.80
2019-03-04T01:34:26.454Z,11.90
2019-03-04T01:36:57.901Z,11.90
2019-03-04T01:39:28.241Z,11.90
2019-03-04T01:41:58.228Z,11.90
2019-03-04T01:44:28.330Z,12.00
2019-03-04T01:46:58.929Z,12.00
2019-03-04T01:49:29.435Z,12.00
2019-03-04T01:51:59.632Z,12.10
2019-03-04T01:54:29.842Z,12.10
2019-03-04T01:57:00.088Z,12.10
2019-03-04T01:59:30.519Z,12.00
2019-03-04T02:02:00.680Z,12.00
2019-03-04T02:04:30.721Z,12.00
2019-03-04T02:07:00.928Z,12.10
2019-03-04T02:09:32.603Z,12.00
2019-03-04T02:12:02.831Z,12.00
2019-03-04T02:14:32.945Z,12.00
2019-03-04T02:17:03.485Z,12.00
2019-03-04T02:19:33.561Z,12.00
2019-03-04T02:22:03.629Z,11.90
2019-03-04T02:24:34.312Z,11.90
2019-03-04T02:27:04.874Z,12.00
2019-03-04T02:29:35.251Z,12.00
2019-03-04T02:32:05.561Z,12.00
2019-03-04T02:34:35.602Z,12.00
2019-03-04T02:37:05.866Z,12.00
2019-03-04T02:39:36.739Z,12.10
2019-03-04T02:42:07.122Z,12.10
2019-03-04T02:44:37.363Z,12.10
2019-03-04T02:47:07.682Z,12.00
2019-03-04T02:49:37.841Z,12.00
2019-03-04T02:52:09.888Z,12.00
2019-03-04T02:54:40.783Z,12.10
2019-03-04T02:57:11.104Z,12.00
2019-03-04T02:59:41.355Z,12.00
2019-03-04T03:02:12.716Z,12.20
2019-03-04T03:04:43.040Z,12.10
2019-03-04T03:07:13.617Z,12.10
2019-03-04T03:09:44.243Z,12.10
2019-03-04T03:12:14.954Z,12.10
2019-03-04T03:14:45.371Z,12.10
2019-03-04T03:17:15.859Z,12.10
2019-03-04T03:19:46.107Z,12.10
2019-03-04T03:22:16.749Z,12.10
2019-03-04T03:24:47.192Z,12.10
2019-03-04T03:27:17.246Z,12.10
2019-03-04T03:29:48.017Z,12.10
2019-03-04T03:32:18.694Z,12.10
2019-03-04T03:34:49.068Z,12.10
2019-03-04T03:37:19.731Z,12.10
2019-03-04T03:39:49.926Z,12.10
2019-03-04T03:42:20.159Z,12.20
2019-03-04T03:44:50.276Z,12.20
2019-03-04T03:47:20.892Z,12.20
2019-03-04T03:49:51.146Z,12.10
2019-03-04T03:52:21.320Z,12.10
2019-03-04T03:54:52.574Z,12.20
2019-03-04T03:57:22.943Z,12.20
2019-03-04T03:59:53.166Z,12.10
2019-03-04T04:02:23.643Z,12.10
2019-03-04T04:04:54.048Z,12.10
2019-03-04T04:07:24.221Z,12.00
2019-03-04T04:09:55.204Z,12.00
2019-03-04T04:12:25.289Z,12.00
2019-03-04T04:14:55.605Z,12.00
2019-03-04T04:17:26.035Z,12.00
2019-03-04T04:19:56.451Z,11.90
2019-03-04T04:22:26.741Z,11.80
2019-03-04T04:24:58.028Z,11.80
2019-03-04T04:27:28.323Z,11.90
2019-03-04T04:29:58.669Z,12.00
2019-03-04T04:32:29.474Z,11.90
2019-03-04T04:35:00.304Z,11.90
2019-03-04T04:37:32.050Z,11.90
2019-03-04T04:40:02.678Z,11.90
2019-03-04T04:42:33.298Z,11.90
2019-03-04T04:45:05.915Z,11.90
2019-03-04T04:47:36.890Z,11.90
2019-03-04T04:50:08.506Z,11.90
2019-03-04T04:52:39.351Z,11.90
2019-03-04T04:55:13.106Z,11.90
2019-03-04T04:57:43.618Z,11.80
2019-03-04T05:00:15.088Z,11.90
2019-03-04T05:02:46.021Z,11.90
2019-03-04T05:05:16.838Z,12.00
2019-03-04T05:07:48.002Z,11.90
2019-03-04T05:10:19.439Z,11.90
2019-03-04T05:12:50.083Z,12.00
2019-03-04T05:15:21.333Z,11.90
2019-03-04T05:17:57.386Z,12.00
2019-03-04T05:20:28.301Z,12.10
2019-03-04T05:22:59.125Z,12.30
2019-03-04T05:25:29.488Z,12.30
2019-03-04T05:27:59.935Z,12.30
2019-03-04T05:30:30.259Z,12.30
2019-03-04T05:33:00.743Z,12.50
2019-03-04T05:35:31.347Z,12.50
2019-03-04T05:38:01.457Z,12.50
2019-03-04T05:40:32.082Z,12.50
2019-03-04T05:43:02.510Z,12.40
2019-03-04T05:45:32.794Z,12.50
2019-03-04T05:48:03.482Z,12.50
2019-03-04T05:50:33.711Z,12.60
2019-03-04T05:53:03.866Z,12.70
2019-03-04T05:55:34.774Z,12.70
2019-03-04T05:58:04.986Z,12.70
2019-03-04T06:00:39.857Z,12.70
2019-03-04T06:03:14.333Z,12.80
2019-03-04T06:05:45.705Z,12.80
2019-03-04T06:08:16.081Z,12.80
2019-03-04T06:10:49.329Z,12.80
2019-03-04T06:13:19.666Z,12.80
2019-03-04T06:15:49.920Z,12.80
2019-03-04T06:18:20.740Z,12.80
2019-03-04T06:20:51.702Z,12.90
2019-03-04T06:23:22.894Z,12.80
2019-03-04T06:25:53.375Z,12.90
2019-03-04T06:28:23.904Z,13.00
2019-03-04T06:30:54.338Z,13.00
2019-03-04T06:33:24.518Z,13.00
2019-03-04T06:35:55.015Z,13.00
2019-03-04T06:38:25.756Z,12.90
2019-03-04T06:40:57.926Z,12.90
2019-03-04T06:43:28.777Z,12.80
2019-03-04T06:45:58.887Z,12.80
2019-03-04T06:48:30.741Z,12.70
2019-03-04T06:51:01.661Z,12.60
2019-03-04T06:54:14.711Z,12.30
2019-03-04T06:57:28.477Z,11.90
2019-03-04T07:00:48.142Z,11.40
2019-03-04T07:03:43.258Z,11.20
2019-03-04T07:06:13.706Z,10.90
2019-03-04T07:09:13.669Z,10.90
2019-03-04T07:12:02.533Z,10.90
2019-03-04T07:14:37.764Z,10.70
2019-03-04T07:17:08.299Z,10.60
2019-03-04T07:19:40.914Z,10.50
2019-03-04T07:22:12.900Z,10.40
2019-03-04T07:25:26.271Z,10.30
2019-03-04T07:28:06.066Z,10.10
2019-03-04T07:31:17.076Z,10.10
2019-03-04T07:33:51.162Z,10.20
2019-03-04T07:36:21.705Z,10.20
2019-03-04T07:38:58.499Z,10.30
2019-03-04T07:41:37.464Z,10.30
2019-03-04T07:44:08.181Z,10.30
2019-03-04T07:46:41.415Z,10.30
2019-03-04T07:49:11.663Z,10.30
2019-03-04T07:51:45.315Z,10.30
2019-03-04T07:54:16.967Z,10.30
2019-03-04T07:56:47.223Z,10.20
2019-03-04T07:59:24.067Z,10.20
2019-03-04T08:01:53.233Z,10.20
2019-03-04T08:04:23.918Z,10.20
2019-03-04T08:07:23.544Z,10.10
2019-03-04T08:10:12.037Z,10.10
2019-03-04T08:13:03.014Z,10.30
2019-03-04T08:15:47.808Z,10.30
2019-03-04T08:18:21.623Z,10.00
2019-03-04T08:20:51.911Z,10.00
2019-03-04T08:23:22.508Z,10.00
2019-03-04T08:25:53.310Z,9.70
2019-03-04T08:28:23.770Z,8.60
2019-03-04T08:30:54.083Z,8.20
2019-03-04T08:33:24.967Z,7.80
2019-03-04T08:35:57.902Z,7.70
2019-03-04T08:38:29.765Z,7.60
2019-03-04T08:41:02.036Z,7.60
2019-03-04T08:43:34.648Z,7.70
2019-03-04T08:46:07.758Z,7.80
2019-03-04T08:48:38.196Z,7.80
2019-03-04T08:51:08.355Z,7.80
2019-03-04T08:53:38.654Z,7.90
2019-03-04T08:56:12.491Z,7.90
2019-03-04T08:58:42.758Z,7.80
2019-03-04T09:01:15.216Z,7.80
2019-03-04T09:03:48.658Z,7.70
2019-03-04T09:06:20.703Z,7.70
2019-03-04T09:08:50.910Z,8.00
2019-03-04T09:11:22.975Z,8.50
2019-03-04T09:13:53.247Z,9.00
2019-03-04T09:16:23.582Z,9.30
2019-03-04T09:18:54.196Z,9.20
2019-03-04T09:21:30.668Z,9.40
2019-03-04T09:24:00.996Z,9.80
2019-03-04T09:26:32.666Z,10.20
2019-03-04T09:29:03.138Z,10.40
2019-03-04T09:31:34.145Z,10.30
2019-03-04T09:34:15.449Z,10.50
2019-03-04T09:36:46.289Z,10.50
2019-03-04T09:39:19.395Z,10.70
2019-03-04T09:42:00.317Z,10.70
2019-03-04T09:44:32.730Z,10.80
2019-03-04T09:47:06.635Z,10.80
2019-03-04T09:49:40.782Z,11.20
2019-03-04T09:52:12.383Z,11.10
2019-03-04T09:54:42.714Z,11.00
2019-03-04T09:57:13.680Z,10.80
2019-03-04T09:59:44.454Z,10.70
2019-03-04T10:02:29.446Z,10.50
2019-03-04T10:05:39.135Z,10.30
2019-03-04T10:08:50.903Z,10.30
2019-03-04T10:11:59.994Z,10.40
2019-03-04T10:15:09.219Z,10.40
2019-03-04T10:18:16.999Z,10.40
2019-03-04T10:21:26.542Z,10.50
2019-03-04T10:24:36.343Z,10.80
2019-03-04T10:27:38.472Z,10.80
2019-03-04T10:30:50.473Z,10.80
2019-03-04T10:34:19.887Z,10.70
2019-03-04T10:37:26.906Z,10.50
2019-03-04T10:40:45.871Z,10.40
2019-03-04T10:43:44.628Z,10.20
2019-03-04T10:46:40.175Z,10.20
2019-03-04T10:49:10.916Z,10.20
2019-03-04T10:51:41.219Z,10.00
2019-03-04T10:54:11.531Z,10.00
2019-03-04T10:56:42.467Z,9.90
2019-03-04T10:59:16.595Z,9.60
2019-03-04T11:01:50.215Z,9.40
2019-03-04T11:04:22.440Z,9.10
2019-03-04T11:06:55.069Z,9.10
2019-03-04T11:09:27.247Z,8.10
2019-03-04T11:11:59.187Z,7.90
2019-03-04T11:14:29.850Z,7.70
2019-03-04T11:17:00.035Z,7.20
2019-03-04T11:19:30.453Z,7.20
2019-03-04T11:22:00.927Z,7.00
2019-03-04T11:24:31.123Z,7.10
2019-03-04T11:27:01.742Z,6.90
2019-03-04T11:29:33.594Z,6.90
2019-03-04T11:32:04.273Z,6.90
2019-03-04T11:34:37.786Z,6.90
2019-03-04T11:37:08.297Z,6.80
2019-03-04T11:40:00.675Z,6.80
2019-03-04T11:42:30.839Z,7.00
2019-03-04T11:45:01.312Z,7.00
2019-03-04T11:47:32.383Z,7.10
2019-03-04T11:50:04.255Z,7.10
2019-03-04T11:52:34.647Z,7.10
2019-03-04T11:55:05.642Z,7.20
2019-03-04T11:57:35.846Z,7.40
2019-03-04T12:00:21.906Z,7.40
2019-03-04T12:02:52.937Z,7.40
2019-03-04T12:05:23.690Z,7.70
2019-03-04T12:07:53.956Z,7.40
2019-03-04T12:10:25.821Z,7.40
2019-03-04T12:12:59.331Z,7.20
2019-03-04T12:15:32.705Z,7.30
2019-03-04T12:18:13.234Z,7.30
2019-03-04T12:20:49.562Z,7.40
2019-03-04T12:23:20.179Z,7.50
2019-03-04T12:25:50.957Z,7.70
2019-03-04T12:28:21.979Z,7.80
2019-03-04T12:30:53.417Z,7.80
2019-03-04T12:33:23.954Z,7.60
2019-03-04T12:35:54.302Z,7.60
2019-03-04T12:38:35.751Z,7.60
2019-03-04T12:41:09.933Z,7.50
2019-03-04T12:43:43.392Z,7.60
2019-03-04T12:46:13.870Z,7.70
2019-03-04T12:48:44.177Z,7.80
2019-03-04T12:51:22.630Z,7.90
2019-03-04T12:53:46.196Z,7.90
2019-03-04T12:56:16.794Z,7.70
2019-03-04T12:58:48.895Z,7.80
2019-03-04T13:01:19.074Z,7.70
2019-03-04T13:03:49.250Z,7.70
2019-03-04T13:06:25.484Z,7.60
2019-03-04T13:08:57.293Z,7.70
2019-03-04T13:11:32.725Z,7.90
2019-03-04T13:14:03.218Z,7.90
2019-03-04T13:16:37.055Z,8.00
2019-03-04T13:19:12.141Z,8.30
2019-03-04T13:21:42.939Z,8.20
2019-03-04T13:24:13.842Z,8.10
2019-03-04T13:26:44.098Z,7.90
2019-03-04T13:29:16.681Z,7.80
2019-03-04T13:31:52.734Z,8.10
2019-03-04T13:34:26.025Z,8.70
2019-03-04T13:37:02.630Z,8.80
2019-03-04T13:39:33.470Z,8.60
2019-03-04T13:42:05.886Z,8.40
2019-03-04T13:44:36.817Z,8.20
2019-03-04T13:47:10.183Z,8.20
2019-03-04T13:49:41.712Z,8.20
2019-03-04T13:52:18.622Z,8.30
2019-03-04T13:54:49.769Z,8.10
2019-03-04T13:57:22.305Z,8.00
2019-03-04T13:59:54.285Z,8.00
2019-03-04T14:02:30.774Z,8.00
2019-03-04T14:05:15.748Z,7.90
2019-03-04T14:07:46.087Z,7.90
2019-03-04T14:10:23.473Z,7.90
2019-03-04T14:12:54.196Z,7.90
2019-03-04T14:15:31.030Z,8.00
2019-03-04T14:18:13.113Z,8.10
2019-03-04T14:20:46.318Z,8.20
2019-03-04T14:23:16.630Z,8.30
2019-03-04T14:25:46.889Z,8.30
2019-03-04T14:28:17.334Z,8.20
2019-03-04T14:30:47.524Z,8.20
2019-03-04T14:33:18.046Z,8.10
2019-03-04T14:35:48.732Z,8.10
2019-03-04T14:38:19.048Z,8.10
2019-03-04T14:40:52.290Z,8.20
2019-03-04T14:43:24.257Z,8.20
2019-03-04T14:45:57.215Z,8.10
2019-03-04T14:48:28.211Z,8.10
2019-03-04T14:50:58.313Z,8.10
2019-03-04T14:53:28.677Z,8.30
2019-03-04T14:56:01.908Z,8.30
2019-03-04T14:59:09.802Z,8.40
2019-03-04T15:01:36.277Z,8.40
2019-03-04T15:04:06.782Z,8.30
2019-03-04T15:06:40.295Z,8.20
2019-03-04T15:09:18.486Z,8.20
2019-03-04T15:11:56.751Z,8.20
2019-03-04T15:14:21.307Z,8.20
2019-03-04T15:17:02.723Z,8.20
2019-03-04T15:19:31.323Z,8.20
2019-03-04T15:22:01.875Z,8.20
2019-03-04T15:24:32.251Z,8.20
2019-03-04T15:27:02.962Z,8.20
2019-03-04T15:29:33.541Z,8.20
2019-03-04T15:32:04.165Z,8.30
2019-03-04T15:34:35.028Z,8.30
2019-03-04T15:37:16.312Z,8.40
2019-03-04T15:39:49.992Z,8.40
2019-03-04T15:42:21.876Z,8.50
2019-03-04T15:44:53.023Z,8.50
2019-03-04T15:50:16.852Z,8.50
2019-03-04T15:52:47.379Z,8.50
2019-03-04T15:55:19.077Z,8.50
2019-03-04T15:58:02.150Z,8.60
2019-03-04T16:00:32.582Z,8.50
2019-03-04T16:03:02.876Z,8.60
2019-03-04T16:05:36.319Z,8.50
2019-03-04T16:08:08.049Z,8.50
2019-03-04T16:10:38.934Z,8.60
2019-03-04T16:13:09.545Z,8.50
2019-03-04T16:15:43.591Z,8.50
2019-03-04T16:18:20.252Z,8.40
2019-03-04T16:20:50.478Z,8.40
2019-03-04T16:23:22.276Z,8.40
2019-03-04T16:25:54.061Z,8.40
2019-03-04T16:28:27.560Z,8.40
2019-03-04T16:31:01.451Z,8.30
2019-03-04T16:33:31.967Z,8.30
2019-03-04T16:36:02.523Z,8.30
2019-03-04T16:38:34.062Z,8.30
2019-03-04T16:41:04.423Z,8.30
2019-03-04T16:43:36.632Z,8.40
2019-03-04T16:46:06.997Z,8.40
2019-03-04T16:48:37.494Z,8.30
2019-03-04T16:51:09.616Z,8.30
2019-03-04T16:53:40.216Z,8.30
2019-03-04T16:56:10.663Z,8.30
2019-03-04T16:58:43.646Z,8.30
2019-03-04T17:01:14.514Z,8.30
2019-03-04T17:03:47.891Z,8.20
2019-03-04T17:06:21.257Z,8.20
2019-03-04T17:08:53.041Z,8.20
2019-03-04T17:11:23.285Z,8.20
2019-03-04T17:13:54.110Z,8.20
2019-03-04T17:16:24.317Z,8.10
2019-03-04T17:18:54.590Z,8.10
2019-03-04T17:21:25.118Z,8.20
2019-03-04T17:23:57.426Z,8.10
2019-03-04T17:26:28.302Z,8.10
2019-03-04T17:28:59.194Z,8.00
2019-03-04T17:31:29.882Z,8.10
2019-03-04T17:34:01.275Z,8.00
2019-03-04T17:36:32.538Z,8.10
2019-03-04T17:39:05.802Z,8.00
2019-03-04T17:41:39.803Z,8.10
2019-03-04T17:44:09.957Z,8.00
2019-03-04T17:46:40.073Z,8.00
2019-03-04T17:49:11.212Z,8.00
2019-03-04T17:51:44.507Z,8.00
2019-03-04T17:54:15.579Z,7.90
2019-03-04T17:56:46.037Z,7.90
2019-03-04T17:59:19.085Z,7.80
2019-03-04T18:01:50.038Z,7.70
2019-03-04T18:04:20.868Z,7.70
2019-03-04T18:06:51.550Z,7.60
2019-03-04T18:09:23.215Z,7.60
2019-03-04T18:11:54.175Z,7.50
2019-03-04T18:14:25.382Z,7.50
2019-03-04T18:16:56.409Z,7.40
2019-03-04T18:19:42.415Z,7.40
2019-03-04T18:22:18.808Z,7.40
2019-03-04T18:24:52.402Z,7.40
2019-03-04T18:27:30.471Z,7.30
2019-03-04T18:30:24.004Z,7.30
2019-03-04T18:33:41.174Z,7.20
2019-03-04T18:36:36.483Z,7.20
2019-03-04T18:40:00.641Z,7.20
2019-03-04T18:43:27.711Z,7.10
2019-03-04T18:46:26.947Z,7.10
2019-03-04T18:48:59.098Z,7.00
2019-03-04T18:51:32.593Z,7.00
2019-03-04T18:54:22.400Z,7.00
2019-03-04T18:56:53.492Z,7.00
2019-03-04T18:59:23.997Z,6.90
2019-03-04T19:01:54.533Z,6.90
2019-03-04T19:04:26.888Z,6.90
2019-03-04T19:07:02.907Z,6.90
2019-03-04T19:09:33.541Z,6.80
2019-03-04T19:12:04.089Z,6.80
2019-03-04T19:14:38.756Z,6.80
2019-03-04T19:17:09.569Z,6.80
2019-03-04T19:19:42.719Z,6.80
2019-03-04T19:22:16.190Z,6.80
2019-03-04T19:24:46.389Z,6.80
2019-03-04T19:27:19.656Z,6.80
2019-03-04T19:29:52.302Z,6.80
2019-03-04T19:32:25.014Z,6.80
2019-03-04T19:34:55.255Z,6.80
2019-03-04T19:37:26.068Z,6.80
2019-03-04T19:39:57.839Z,6.80
2019-03-04T19:42:31.558Z,6.70
2019-03-04T19:45:02.113Z,6.80
2019-03-04T19:47:33.855Z,6.80
2019-03-04T19:50:04.287Z,6.90
2019-03-04T19:52:37.475Z,6.90
2019-03-04T19:55:12.489Z,6.90
2019-03-04T19:57:43.491Z,6.80
2019-03-04T20:00:17.777Z,6.80
2019-03-04T20:02:50.097Z,6.80
2019-03-04T20:05:21.670Z,6.80
2019-03-04T20:07:52.619Z,6.80
2019-03-04T20:10:23.616Z,6.80
2019-03-04T20:12:53.890Z,6.80
2019-03-04T20:15:25.154Z,6.80
2019-03-04T20:18:00.356Z,6.80
2019-03-04T20:20:32.875Z,6.80
2019-03-04T20:23:03.193Z,6.90
2019-03-04T20:25:36.290Z,6.90
2019-03-04T20:28:11.868Z,6.90
2019-03-04T20:30:43.066Z,6.80
2019-03-04T20:33:13.521Z,6.80
2019-03-04T20:35:44.285Z,6.80
2019-03-04T20:38:14.678Z,6.80
2019-03-04T20:40:45.233Z,6.70
2019-03-04T20:43:17.331Z,6.70
2019-03-04T20:45:51.004Z,6.70
2019-03-04T20:48:21.379Z,6.70
2019-03-04T20:50:51.818Z,6.70
2019-03-04T20:53:25.870Z,6.70
2019-03-04T20:56:00.500Z,6.70
2019-03-04T20:58:30.793Z,6.70
2019-03-04T21:01:01.522Z,6.70
2019-03-04T21:03:35.077Z,6.70
2019-03-04T21:06:04.535Z,6.60
2019-03-04T21:08:35.234Z,6.70
2019-03-04T21:11:06.018Z,6.70
2019-03-04T21:13:36.363Z,6.70
2019-03-04T21:16:10.014Z,6.70
2019-03-04T21:18:45.876Z,6.70
2019-03-04T21:21:16.982Z,6.70
2019-03-04T21:23:48.534Z,6.70
2019-03-04T21:26:29.417Z,6.70
2019-03-04T21:29:30.203Z,6.70
2019-03-04T21:32:24.019Z,6.80
2019-03-04T21:35:56.215Z,6.80
2019-03-04T21:38:30.558Z,6.80
2019-03-04T21:41:31.036Z,6.80
2019-03-04T21:44:23.746Z,6.80
2019-03-04T21:47:24.543Z,6.80
2019-03-04T21:49:56.215Z,6.90
2019-03-04T21:52:38.916Z,6.80
2019-03-04T21:55:36.439Z,6.90
2019-03-04T21:58:06.903Z,6.90
2019-03-04T22:00:46.331Z,6.90
2019-03-04T22:03:20.518Z,7.00
2019-03-04T22:05:52.121Z,7.00
2019-03-04T22:08:23.394Z,7.00
2019-03-04T22:10:56.104Z,7.00
2019-03-04T22:13:26.437Z,7.00
2019-03-04T22:15:59.715Z,7.10
2019-03-04T22:18:30.703Z,7.10
2019-03-04T22:21:00.948Z,7.10
2019-03-04T22:23:31.282Z,7.10
2019-03-04T22:26:02.626Z,7.10
2019-03-04T22:28:33.561Z,7.10
2019-03-04T22:31:04.026Z,7.10
2019-03-04T22:33:34.485Z,7.10
2019-03-04T22:36:04.915Z,7.10
2019-03-04T22:38:40.911Z,7.00
2019-03-04T22:41:13.625Z,6.90
2019-03-04T22:43:43.030Z,6.80
2019-03-04T22:46:14.026Z,6.70
2019-03-04T22:48:44.291Z,6.60
2019-03-04T22:51:14.823Z,6.50
2019-03-04T22:53:45.010Z,6.40
2019-03-04T22:56:21.171Z,6.40
2019-03-04T22:58:52.893Z,6.30
2019-03-04T23:01:53.917Z,6.20
2019-03-04T23:04:47.827Z,6.20
2019-03-04T23:07:24.162Z,6.20
2019-03-04T23:10:21.466Z,6.20
2019-03-04T23:12:59.362Z,6.20
2019-03-04T23:15:29.621Z,6.20
2019-03-04T23:18:00.255Z,6.20
2019-03-04T23:20:31.029Z,6.20
2019-03-04T23:23:02.232Z,6.20
2019-03-04T23:25:35.485Z,6.20
2019-03-04T23:28:07.786Z,6.00
2019-03-04T23:30:38.155Z,5.90
2019-03-04T23:33:12.218Z,5.80
2019-03-04T23:35:42.757Z,5.70
2019-03-04T23:38:15.714Z,5.80
2019-03-04T23:40:46.278Z,5.70
2019-03-04T23:43:16.462Z,5.80
2019-03-04T23:45:47.099Z,5.80
2019-03-04T23:48:17.448Z,5.80
2019-03-04T23:50:47.712Z,5.70
2019-03-04T23:53:17.926Z,5.80
2019-03-04T23:55:48.834Z,5.80
2019-03-04T23:58:20.775Z,5.80
